Time;durP1;ratioP1;P1;durP2;ratioP2;P2;SDS_P1;SDS_P2;PMS_P1;PMS_P2;Temp;Humidity;BMP_temperature;BMP_pressure;BME280_temperature;BME280_humidity;BME280_pressure;Samples;Min_cycle;Max_cycle;Signal;HPM_P1;HPM_P2
2023/08/09 00:01:14;;;;;;;13.30;4.65;;;24.30;65.30;;;;;;6276455;22;20007;-79
2023/08/09 00:03:40;;;;;;;14.35;4.70;;;24.30;65.10;;;;;;6237156;22;20021;-79
2023/08/09 00:06:06;;;;;;;15.10;4.05;;;24.30;65.10;;;;;;6185555;23;20001;-79
2023/08/09 00:08:32;;;;;;;13.80;4.38;;;24.40;65.10;;;;;;6186037;23;19997;-79
2023/08/09 00:10:58;;;;;;;10.27;4.47;;;24.40;65.00;;;;;;6188436;23;20068;-78
2023/08/09 00:13:24;;;;;;;13.30;4.75;;;24.40;64.30;;;;;;6187423;23;20334;-78
2023/08/09 00:15:52;;;;;;;10.45;4.47;;;24.40;64.40;;;;;;6160970;23;20025;-79
2023/08/09 00:18:19;;;;;;;10.57;4.00;;;24.40;64.20;;;;;;6160447;23;20008;-78
2023/08/09 00:20:48;;;;;;;11.32;4.03;;;24.40;64.20;;;;;;6187438;23;20024;-79
2023/08/09 00:23:16;;;;;;;10.48;4.32;;;24.40;64.20;;;;;;6187620;23;20005;-80
2023/08/09 00:25:43;;;;;;;11.15;4.22;;;24.30;63.60;;;;;;6187071;23;20001;-78
2023/08/09 00:28:09;;;;;;;11.38;4.32;;;24.20;63.80;;;;;;6160933;23;20009;-79
2023/08/09 00:30:38;;;;;;;13.25;4.47;;;24.10;63.60;;;;;;6187875;23;20017;-79
2023/08/09 00:33:04;;;;;;;8.15;3.80;;;24.00;64.00;;;;;;6131136;23;20049;-80
2023/08/09 00:35:31;;;;;;;10.65;3.63;;;24.00;63.80;;;;;;6157278;23;20115;-77
2023/08/09 00:38:00;;;;;;;11.38;3.92;;;23.90;64.00;;;;;;6157592;23;20368;-79
2023/08/09 00:40:27;;;;;;;10.52;3.58;;;23.90;64.10;;;;;;6131157;23;20006;-77
2023/08/09 00:42:53;;;;;;;9.70;4.00;;;23.80;64.10;;;;;;6157249;23;20013;-78
2023/08/09 00:45:19;;;;;;;11.02;3.80;;;23.80;64.10;;;;;;6157614;23;20077;-77
2023/08/09 00:47:46;;;;;;;8.13;3.50;;;23.80;63.80;;;;;;6162312;23;20458;-78
2023/08/09 00:50:12;;;;;;;8.18;3.38;;;23.80;64.00;;;;;;6157369;23;20057;-78
2023/08/09 00:52:38;;;;;;;10.45;3.92;;;23.70;63.80;;;;;;6157418;23;20001;-77
2023/08/09 00:55:05;;;;;;;11.23;3.75;;;23.70;64.20;;;;;;6157154;23;20005;-79
2023/08/09 00:57:31;;;;;;;7.88;3.28;;;23.70;63.90;;;;;;6151050;23;20027;-78
2023/08/09 00:59:57;;;;;;;10.88;3.97;;;23.70;63.70;;;;;;6156825;23;20049;-77
2023/08/09 01:02:24;;;;;;;9.05;4.00;;;23.80;63.50;;;;;;6156787;23;19997;-78
2023/08/09 01:04:51;;;;;;;14.18;3.88;;;23.80;63.40;;;;;;6157497;23;20025;-77
2023/08/09 01:07:37;;;;;;;7.63;3.30;;;23.80;63.60;;;;;;6186948;23;20056;-78
2023/08/09 01:10:27;;;;;;;10.32;3.65;;;23.80;62.90;;;;;;6186587;23;20016;-76
2023/08/09 01:12:57;;;;;;;9.07;3.78;;;23.70;63.20;;;;;;6186937;23;20427;-77
2023/08/09 01:15:23;;;;;;;11.15;3.53;;;23.60;63.20;;;;;;6188303;23;20033;-78
2023/08/09 01:17:52;;;;;;;11.52;3.92;;;23.60;63.30;;;;;;6189933;23;20001;-77
2023/08/09 01:20:20;;;;;;;12.57;3.83;;;23.60;63.00;;;;;;6186519;23;20002;-78
2023/08/09 01:22:56;;;;;;;10.98;4.45;;;23.60;62.90;;;;;;6186633;23;20027;-76
2023/08/09 01:25:22;;;;;;;11.40;4.68;;;23.60;63.00;;;;;;6186498;23;20379;-78
2023/08/09 01:27:48;;;;;;;8.32;4.20;;;23.60;62.60;;;;;;6186318;23;20459;-77
2023/08/09 01:30:15;;;;;;;10.85;3.97;;;23.60;62.40;;;;;;6186917;23;20020;-78
2023/08/09 01:32:41;;;;;;;8.98;3.70;;;23.50;62.50;;;;;;6187082;23;19993;-77
2023/08/09 01:35:08;;;;;;;8.25;3.42;;;23.40;62.50;;;;;;6160308;23;20016;-78
2023/08/09 01:37:55;;;;;;;6.88;3.40;;;23.30;62.40;;;;;;6160574;23;20005;-78
2023/08/09 01:40:22;;;;;;;7.18;2.83;;;23.20;62.90;;;;;;6187904;23;20427;-78
2023/08/09 01:42:51;;;;;;;5.78;2.83;;;23.20;62.70;;;;;;6188235;23;20005;-77
2023/08/09 01:45:19;;;;;;;7.93;3.10;;;23.20;62.70;;;;;;6191110;23;20028;-78
2023/08/09 01:47:45;;;;;;;7.70;2.85;;;23.10;62.60;;;;;;6186170;23;20072;-78
2023/08/09 01:50:24;;;;;;;7.20;2.63;;;23.00;62.30;;;;;;6186258;23;20008;-78
2023/08/09 01:52:58;;;;;;;7.72;2.63;;;22.90;62.20;;;;;;6186304;23;20434;-77
2023/08/09 01:55:28;;;;;;;8.05;2.90;;;22.80;62.20;;;;;;6186485;23;20092;-77
2023/08/09 01:57:58;;;;;;;9.93;2.65;;;22.80;62.20;;;;;;6186029;23;20423;-76
2023/08/09 02:00:27;;;;;;;8.77;2.80;;;22.80;61.90;;;;;;6186579;23;20007;-77
2023/08/09 02:02:54;;;;;;;9.55;2.42;;;22.80;61.90;;;;;;6183191;23;20072;-78
2023/08/09 02:05:21;;;;;;;6.63;2.38;;;22.70;61.80;;;;;;6156275;23;20453;-77
2023/08/09 02:07:48;;;;;;;6.70;2.50;;;22.70;61.90;;;;;;6156353;23;20335;-77
2023/08/09 02:10:14;;;;;;;5.90;2.47;;;22.70;62.00;;;;;;6156060;23;20010;-77
2023/08/09 02:12:43;;;;;;;6.25;2.63;;;22.60;62.00;;;;;;6156363;23;20001;-79
2023/08/09 02:15:10;;;;;;;5.68;2.35;;;22.50;62.10;;;;;;6156637;23;20317;-78
2023/08/09 02:17:39;;;;;;;8.48;2.47;;;22.50;62.00;;;;;;6156124;23;20088;-77
2023/08/09 02:20:06;;;;;;;7.47;2.63;;;22.50;62.30;;;;;;6156304;23;20005;-77
2023/08/09 02:22:39;;;;;;;7.30;2.60;;;22.40;62.20;;;;;;6156735;23;20002;-78
2023/08/09 02:25:10;;;;;;;6.50;2.10;;;22.40;62.70;;;;;;6156438;23;20006;-78
2023/08/09 02:27:40;;;;;;;6.85;2.25;;;22.40;62.60;;;;;;6156215;23;20301;-78
2023/08/09 02:30:15;;;;;;;8.95;2.58;;;22.40;62.60;;;;;;6155911;23;20047;-77
2023/08/09 02:32:44;;;;;;;6.55;2.33;;;22.50;62.60;;;;;;6155518;23;20001;-78
2023/08/09 02:35:10;;;;;;;6.40;2.53;;;22.50;62.60;;;;;;6156141;23;20377;-78
2023/08/09 02:37:37;;;;;;;7.28;2.20;;;22.40;62.70;;;;;;6156273;23;20008;-78
2023/08/09 02:40:04;;;;;;;7.32;2.50;;;22.40;63.60;;;;;;6154080;23;20005;-77
2023/08/09 02:42:40;;;;;;;7.68;2.50;;;22.40;63.10;;;;;;6157857;23;20048;-78
2023/08/09 02:45:06;;;;;;;8.77;2.58;;;22.40;63.20;;;;;;6160971;23;20088;-77
2023/08/09 02:47:36;;;;;;;13.40;3.33;;;22.40;63.30;;;;;;6156306;23;20436;-77
2023/08/09 02:50:06;;;;;;;8.75;2.70;;;22.50;63.20;;;;;;6155656;23;20483;-77
2023/08/09 02:52:32;;;;;;;9.48;2.45;;;22.50;63.20;;;;;;6129715;23;20060;-77
2023/08/09 02:55:04;;;;;;;8.25;2.60;;;22.50;63.20;;;;;;6155933;23;20064;-78
2023/08/09 02:57:30;;;;;;;6.60;2.58;;;22.50;63.20;;;;;;6155530;23;20008;-77
2023/08/09 02:59:56;;;;;;;8.65;2.97;;;22.50;63.00;;;;;;6155936;23;20400;-77
2023/08/09 03:02:25;;;;;;;8.05;2.85;;;22.50;62.80;;;;;;6155921;23;20020;-77
2023/08/09 03:04:51;;;;;;;9.20;2.67;;;22.50;62.90;;;;;;6156686;23;20447;-77
2023/08/09 03:07:19;;;;;;;9.18;2.75;;;22.60;63.10;;;;;;6185864;23;20004;-77
2023/08/09 03:09:46;;;;;;;6.93;2.42;;;22.50;63.00;;;;;;6185305;23;20008;-77
2023/08/09 03:12:12;;;;;;;6.28;2.70;;;22.60;63.20;;;;;;6185186;23;20009;-77
2023/08/09 03:14:38;;;;;;;9.55;2.42;;;22.60;63.70;;;;;;6185562;23;20001;-79
2023/08/09 03:17:04;;;;;;;11.70;2.60;;;22.60;64.00;;;;;;6185180;23;20088;-77
2023/08/09 03:19:30;;;;;;;8.65;2.78;;;22.40;64.10;;;;;;6185876;23;20001;-77
2023/08/09 03:21:56;;;;;;;12.43;2.85;;;22.40;64.50;;;;;;6185990;23;19997;-76
2023/08/09 03:24:23;;;;;;;10.65;3.33;;;22.30;65.60;;;;;;6196948;23;20048;-77
2023/08/09 03:26:51;;;;;;;10.13;2.90;;;22.20;65.00;;;;;;6189485;23;20005;-77
2023/08/09 03:29:17;;;;;;;10.05;2.90;;;22.20;65.40;;;;;;6185144;23;20036;-78
2023/08/09 03:31:43;;;;;;;13.20;3.33;;;22.10;65.50;;;;;;6185811;23;20446;-76
2023/08/09 03:34:09;;;;;;;8.73;3.28;;;22.10;65.50;;;;;;6185471;23;19997;-78
2023/08/09 03:36:35;;;;;;;6.88;2.15;;;21.90;65.70;;;;;;6185393;23;20009;-77
2023/08/09 03:39:02;;;;;;;12.00;3.25;;;21.90;65.90;;;;;;6183509;23;20013;-77
2023/08/09 03:41:28;;;;;;;10.80;2.83;;;21.80;65.80;;;;;;6185136;23;20061;-76
2023/08/09 03:44:03;;;;;;;8.85;2.80;;;21.80;66.00;;;;;;6191235;23;20051;-77
2023/08/09 03:46:29;;;;;;;6.85;2.72;;;21.70;66.10;;;;;;6186116;23;20001;-77
2023/08/09 03:48:55;;;;;;;10.20;2.88;;;21.70;66.30;;;;;;6185287;23;20012;-76
2023/08/09 03:51:21;;;;;;;12.23;2.97;;;21.90;66.20;;;;;;6183809;23;20005;-77
2023/08/09 03:53:50;;;;;;;9.88;3.70;;;21.90;66.50;;;;;;6185587;23;20001;-77
2023/08/09 03:56:16;;;;;;;9.70;2.80;;;22.00;65.90;;;;;;6185511;23;20001;-77
2023/08/09 03:58:42;;;;;;;8.15;2.90;;;22.10;65.80;;;;;;6185365;23;20362;-77
2023/08/09 04:01:08;;;;;;;8.40;2.70;;;22.00;65.50;;;;;;6185387;23;20008;-76
2023/08/09 04:03:35;;;;;;;7.07;2.42;;;22.00;65.80;;;;;;6196973;23;20397;-77
2023/08/09 04:06:02;;;;;;;10.05;2.75;;;22.10;65.70;;;;;;6188843;23;20001;-77
2023/08/09 04:08:35;;;;;;;6.18;2.88;;;22.10;65.40;;;;;;6215241;23;20035;-77
2023/08/09 04:11:01;;;;;;;8.83;2.60;;;22.10;65.10;;;;;;6188390;23;20020;-77
2023/08/09 04:13:30;;;;;;;8.77;3.10;;;22.10;65.10;;;;;;6215450;23;20496;-77
2023/08/09 04:15:57;;;;;;;10.50;2.85;;;22.00;65.00;;;;;;6188724;23;20012;-76
2023/08/09 04:18:26;;;;;;;5.60;2.35;;;22.00;64.70;;;;;;6215545;23;20028;-76
2023/08/09 04:20:52;;;;;;;6.53;2.25;;;21.90;64.90;;;;;;6215245;23;20031;-77
2023/08/09 04:23:21;;;;;;;5.88;1.98;;;21.90;65.10;;;;;;6214936;23;20433;-77
2023/08/09 04:25:47;;;;;;;8.63;2.83;;;21.90;65.00;;;;;;6215608;23;20051;-77
2023/08/09 04:28:13;;;;;;;11.88;2.53;;;21.90;64.80;;;;;;6215590;23;20001;-77
2023/08/09 04:30:39;;;;;;;9.60;2.55;;;21.90;64.70;;;;;;6188488;23;20028;-76
2023/08/09 04:33:08;;;;;;;7.72;2.50;;;22.00;64.30;;;;;;6188318;23;20373;-77
2023/08/09 04:35:35;;;;;;;5.82;2.20;;;22.00;64.10;;;;;;6215555;23;20000;-76
2023/08/09 04:38:04;;;;;;;8.85;2.55;;;22.00;64.30;;;;;;6215163;23;20001;-77
2023/08/09 04:40:31;;;;;;;8.55;2.20;;;21.90;64.40;;;;;;6215766;23;20072;-77
2023/08/09 04:42:58;;;;;;;8.27;2.47;;;21.90;64.50;;;;;;6218980;23;20001;-77
2023/08/09 04:45:24;;;;;;;9.23;3.00;;;21.90;64.50;;;;;;6215383;23;20000;-76
2023/08/09 04:47:53;;;;;;;11.43;2.65;;;21.90;64.50;;;;;;6214733;23;20027;-78
2023/08/09 04:50:20;;;;;;;6.35;2.38;;;22.00;64.40;;;;;;6214760;23;20017;-77
2023/08/09 04:52:46;;;;;;;8.88;3.17;;;22.00;64.60;;;;;;6215067;23;20028;-77
2023/08/09 04:55:12;;;;;;;9.35;3.00;;;22.00;64.00;;;;;;6188788;23;20104;-77
2023/08/09 04:57:41;;;;;;;11.60;5.13;;;22.00;64.10;;;;;;6217408;23;20025;-77
2023/08/09 05:00:13;;;;;;;11.07;4.78;;;22.10;64.00;;;;;;6216718;23;20379;-76
2023/08/09 05:02:39;;;;;;;17.20;6.80;;;22.10;63.80;;;;;;6216012;23;20007;-78
2023/08/09 05:05:06;;;;;;;8.10;2.65;;;22.10;63.90;;;;;;6216291;23;20059;-78
2023/08/09 05:07:33;;;;;;;14.32;6.75;;;22.10;63.90;;;;;;6217081;23;19999;-78
2023/08/09 05:10:01;;;;;;;11.30;3.25;;;22.00;64.20;;;;;;6216621;23;20009;-79
2023/08/09 05:12:27;;;;;;;9.98;3.28;;;22.00;64.10;;;;;;6217406;23;20381;-73
2023/08/09 05:14:53;;;;;;;10.82;3.22;;;22.10;64.10;;;;;;6190103;23;20087;-77
2023/08/09 05:17:28;;;;;;;11.65;2.95;;;22.10;64.00;;;;;;6217209;23;20403;-79
2023/08/09 05:19:55;;;;;;;15.05;3.17;;;22.20;64.00;;;;;;6192384;23;20008;-78
2023/08/09 05:22:21;;;;;;;13.48;3.25;;;22.20;64.20;;;;;;6190720;23;20054;-78
2023/08/09 05:24:49;;;;;;;8.75;2.75;;;22.10;63.90;;;;;;6216758;23;20059;-80
2023/08/09 05:27:15;;;;;;;8.90;2.45;;;22.10;64.00;;;;;;6216684;23;19997;-79
2023/08/09 05:29:41;;;;;;;9.35;2.80;;;22.20;64.00;;;;;;6220083;23;20012;-79
2023/08/09 05:32:11;;;;;;;8.82;2.60;;;22.20;63.70;;;;;;6225848;23;19997;-79
2023/08/09 05:34:38;;;;;;;5.82;2.35;;;22.40;63.50;;;;;;6214218;23;20009;-77
2023/08/09 05:37:04;;;;;;;7.07;2.70;;;22.70;63.00;;;;;;6223062;23;19997;-80
2023/08/09 05:39:31;;;;;;;10.75;2.72;;;22.90;62.40;;;;;;6227346;23;20334;-79
2023/08/09 05:41:58;;;;;;;10.20;3.33;;;23.10;62.00;;;;;;6219733;23;20036;-79
2023/08/09 05:44:25;;;;;;;7.18;2.38;;;23.30;61.80;;;;;;6191518;23;20008;-79
2023/08/09 05:46:51;;;;;;;6.00;2.45;;;23.50;61.60;;;;;;6216981;23;20001;-79
2023/08/09 05:49:18;;;;;;;6.88;3.05;;;23.80;61.10;;;;;;6189600;23;20016;-78
2023/08/09 05:51:44;;;;;;;9.05;2.60;;;24.00;60.80;;;;;;6216976;23;20031;-79
2023/08/09 05:54:10;;;;;;;7.70;2.67;;;24.20;60.30;;;;;;6216581;23;20000;-79
2023/08/09 05:56:36;;;;;;;8.57;2.20;;;24.40;60.20;;;;;;6216448;23;20060;-81
2023/08/09 05:59:05;;;;;;;8.43;2.72;;;24.70;59.70;;;;;;6189059;23;20055;-79
2023/08/09 06:01:31;;;;;;;6.70;2.50;;;24.90;59.20;;;;;;6215758;23;20008;-79
2023/08/09 06:04:03;;;;;;;11.45;3.03;;;25.10;59.00;;;;;;6216049;23;20427;-79
2023/08/09 06:06:29;;;;;;;7.78;2.42;;;25.50;58.80;;;;;;6216365;23;20051;-80
2023/08/09 06:08:55;;;;;;;8.75;2.65;;;25.80;58.30;;;;;;6216067;23;20000;-79
2023/08/09 06:11:21;;;;;;;9.98;2.60;;;25.90;57.50;;;;;;6188670;23;20069;-77
2023/08/09 06:13:47;;;;;;;9.07;2.90;;;26.10;57.00;;;;;;6216409;23;20447;-77
2023/08/09 06:16:13;;;;;;;9.13;2.75;;;26.30;56.50;;;;;;6216251;23;20008;-77
2023/08/09 06:18:39;;;;;;;8.23;2.55;;;26.50;56.30;;;;;;6216188;23;19997;-77
2023/08/09 06:21:05;;;;;;;6.68;2.92;;;26.80;55.80;;;;;;6215541;23;20331;-77
2023/08/09 06:23:31;;;;;;;11.30;2.70;;;27.00;55.40;;;;;;6215812;23;20000;-77
2023/08/09 06:25:57;;;;;;;8.02;2.80;;;27.30;55.20;;;;;;6188989;23;20048;-77
2023/08/09 06:28:23;;;;;;;7.43;2.80;;;27.40;54.50;;;;;;6215574;23;20005;-77
2023/08/09 06:30:48;;;;;;;9.40;2.78;;;27.60;54.40;;;;;;6215389;23;20009;-77
2023/08/09 06:33:14;;;;;;;7.13;2.53;;;27.70;54.30;;;;;;6215474;23;20379;-78
2023/08/09 06:35:40;;;;;;;7.10;2.60;;;27.90;54.00;;;;;;6215738;23;20354;-76
2023/08/09 06:38:06;;;;;;;12.52;4.00;;;27.90;53.90;;;;;;6215358;23;19996;-78
2023/08/09 06:40:32;;;;;;;9.65;3.30;;;27.90;54.00;;;;;;6215463;23;20003;-76
2023/08/09 06:42:58;;;;;;;9.38;3.30;;;27.80;54.00;;;;;;6219454;23;20004;-77
2023/08/09 06:45:24;;;;;;;7.45;2.83;;;27.70;53.90;;;;;;6188565;23;20461;-81
2023/08/09 06:47:49;;;;;;;10.05;2.85;;;27.70;54.00;;;;;;6215476;23;20052;-77
2023/08/09 06:50:15;;;;;;;11.07;2.60;;;27.70;54.00;;;;;;6216326;23;19998;-78
2023/08/09 06:52:41;;;;;;;8.35;2.70;;;27.90;53.90;;;;;;6216217;23;20367;-81
2023/08/09 06:55:08;;;;;;;6.28;2.40;;;28.00;53.00;;;;;;6215544;23;20009;-80
2023/08/09 06:57:35;;;;;;;7.90;2.35;;;28.30;52.40;;;;;;6216708;23;19993;-81
2023/08/09 07:00:02;;;;;;;7.95;2.50;;;28.50;52.00;;;;;;6218270;23;20001;-83
2023/08/09 07:02:28;;;;;;;8.00;2.45;;;28.50;51.60;;;;;;6190665;23;20024;-80
2023/08/09 07:05:00;;;;;;;8.32;2.95;;;28.70;51.70;;;;;;6216782;23;20024;-80
2023/08/09 07:07:25;;;;;;;9.85;2.63;;;28.90;51.60;;;;;;6215815;23;20039;-80
2023/08/09 07:09:52;;;;;;;8.43;2.70;;;29.00;51.10;;;;;;6215614;23;20012;-78
2023/08/09 07:12:20;;;;;;;12.68;3.10;;;29.10;50.60;;;;;;6215520;23;19997;-78
2023/08/09 07:14:46;;;;;;;9.43;2.90;;;29.20;50.40;;;;;;6215502;23;20450;-79
2023/08/09 07:17:13;;;;;;;10.45;2.95;;;29.30;50.50;;;;;;6215087;23;20457;-79
2023/08/09 07:19:38;;;;;;;6.75;2.58;;;29.20;50.20;;;;;;6215027;23;20011;-77
2023/08/09 07:22:04;;;;;;;9.02;2.53;;;29.20;50.10;;;;;;6215225;23;20000;-78
2023/08/09 07:24:30;;;;;;;7.55;2.72;;;29.30;49.90;;;;;;6216959;23;20071;-78
2023/08/09 07:26:56;;;;;;;11.63;3.30;;;29.20;49.60;;;;;;6216176;23;19996;-82
2023/08/09 07:29:22;;;;;;;11.05;3.20;;;29.30;49.70;;;;;;6214808;23;20127;-78
2023/08/09 07:31:48;;;;;;;8.57;2.70;;;29.30;49.30;;;;;;6215178;23;19996;-77
2023/08/09 07:34:14;;;;;;;8.48;2.95;;;29.20;49.10;;;;;;6215134;23;20005;-77
2023/08/09 07:36:40;;;;;;;9.13;2.65;;;29.30;49.30;;;;;;6215078;23;20043;-78
2023/08/09 07:39:09;;;;;;;9.18;2.72;;;29.20;49.30;;;;;;6215232;23;20000;-77
2023/08/09 07:41:35;;;;;;;8.00;3.00;;;29.20;49.20;;;;;;6219164;23;20059;-80
2023/08/09 07:44:01;;;;;;;8.40;2.75;;;29.10;49.50;;;;;;6214916;23;20044;-78
2023/08/09 07:46:27;;;;;;;7.93;2.72;;;29.00;48.80;;;;;;6215359;23;20012;-78
2023/08/09 07:48:54;;;;;;;9.82;2.80;;;28.90;49.50;;;;;;6214757;23;20001;-78
2023/08/09 07:51:20;;;;;;;10.32;3.15;;;29.00;49.40;;;;;;6188250;23;20012;-80
2023/08/09 07:53:46;;;;;;;7.25;2.45;;;29.00;49.30;;;;;;6215079;23;20000;-77
2023/08/09 07:56:14;;;;;;;8.05;2.38;;;29.00;48.90;;;;;;6214706;23;20435;-79
2023/08/09 07:58:40;;;;;;;7.30;2.60;;;29.00;48.90;;;;;;6164208;23;20013;-79
2023/08/09 08:01:05;;;;;;;7.68;2.47;;;29.00;49.20;;;;;;6215121;23;20005;-80
2023/08/09 08:03:33;;;;;;;11.02;3.00;;;29.10;49.10;;;;;;6214507;23;20523;-77
2023/08/09 08:05:59;;;;;;;11.95;3.08;;;29.10;49.10;;;;;;6213757;23;20031;-79
2023/08/09 08:08:25;;;;;;;7.88;2.58;;;29.00;48.50;;;;;;6214698;23;20007;-79
2023/08/09 08:10:51;;;;;;;8.23;2.67;;;29.00;48.50;;;;;;6214705;23;20091;-81
2023/08/09 08:13:16;;;;;;;7.22;2.50;;;28.80;48.40;;;;;;6214746;23;20004;-78
2023/08/09 08:15:42;;;;;;;8.68;2.70;;;28.70;48.70;;;;;;6214988;23;20450;-81
2023/08/09 08:18:08;;;;;;;8.65;2.50;;;28.70;48.90;;;;;;6213736;23;20028;-80
2023/08/09 08:20:34;;;;;;;8.65;2.22;;;28.60;49.50;;;;;;6214609;23;20021;-78
2023/08/09 08:23:00;;;;;;;10.95;2.70;;;28.50;48.80;;;;;;6214886;23;20023;-78
2023/08/09 08:25:26;;;;;;;7.45;2.15;;;28.40;48.60;;;;;;6190820;23;20004;-77
2023/08/09 08:27:52;;;;;;;10.68;2.75;;;28.30;48.70;;;;;;6207074;23;20020;-80
2023/08/09 08:30:20;;;;;;;8.77;2.47;;;28.20;48.70;;;;;;6215408;23;20426;-78
2023/08/09 08:32:48;;;;;;;7.03;2.17;;;28.10;48.40;;;;;;6216486;23;20096;-78
2023/08/09 08:35:19;;;;;;;7.80;2.20;;;27.90;48.80;;;;;;6216715;23;20446;-79
2023/08/09 08:37:46;;;;;;;5.47;2.40;;;27.80;48.80;;;;;;6218470;23;20079;-78
2023/08/09 08:40:19;;;;;;;9.38;3.00;;;27.70;49.00;;;;;;6216342;23;20000;-78
2023/08/09 08:42:46;;;;;;;10.40;2.50;;;27.80;48.70;;;;;;6189820;23;20442;-78
2023/08/09 08:45:14;;;;;;;8.02;2.67;;;27.80;48.80;;;;;;6216123;23;20011;-83
2023/08/09 08:47:41;;;;;;;9.95;2.35;;;27.80;48.60;;;;;;6217180;23;20079;-79
2023/08/09 08:50:08;;;;;;;6.95;2.72;;;27.90;48.60;;;;;;6213590;23;20019;-81
2023/08/09 08:52:38;;;;;;;8.88;2.50;;;27.90;48.30;;;;;;6215719;23;20055;-81
2023/08/09 08:55:11;;;;;;;10.70;2.08;;;27.90;48.00;;;;;;6215960;23;20029;-79
2023/08/09 08:57:38;;;;;;;7.57;2.25;;;27.80;47.60;;;;;;6216276;23;19996;-78
2023/08/09 09:00:16;;;;;;;6.05;1.77;;;27.70;47.50;;;;;;6188973;23;20009;-82
2023/08/09 09:02:45;;;;;;;8.68;2.28;;;27.80;46.50;;;;;;6220677;23;20008;-80
2023/08/09 09:05:16;;;;;;;8.82;2.10;;;27.80;47.10;;;;;;6221410;23;20020;-81
2023/08/09 09:07:42;;;;;;;7.68;2.42;;;27.80;47.40;;;;;;6192705;23;20008;-81
2023/08/09 09:10:15;;;;;;;10.32;2.42;;;27.90;47.50;;;;;;6216182;23;20450;-80
2023/08/09 09:12:41;;;;;;;7.50;2.53;;;27.90;47.40;;;;;;6189771;23;20009;-80
2023/08/09 09:15:08;;;;;;;9.15;2.20;;;27.90;47.40;;;;;;6216317;23;20000;-79
2023/08/09 09:17:42;;;;;;;7.13;2.20;;;27.80;47.60;;;;;;6216403;23;19996;-80
2023/08/09 09:20:13;;;;;;;;;;;27.80;47.10;;;;;;6216328;23;20000;-80
2023/08/09 09:22:40;;;;;;;7.82;2.30;;;27.90;47.50;;;;;;6216078;23;20344;-81
2023/08/09 09:25:12;;;;;;;4.55;1.83;;;27.80;46.40;;;;;;6216257;23;20001;-81
2023/08/09 09:27:42;;;;;;;5.55;1.73;;;27.80;45.60;;;;;;6216481;23;20446;-81
2023/08/09 09:30:12;;;;;;;9.38;2.10;;;27.80;44.70;;;;;;6214839;23;20019;-81
2023/08/09 09:32:59;;;;;;;5.57;2.10;;;27.80;44.20;;;;;;6189103;23;20062;-80
2023/08/09 09:35:27;;;;;;;9.75;2.35;;;27.80;43.30;;;;;;6189953;23;20020;-80
2023/08/09 09:37:55;;;;;;;6.82;2.75;;;27.80;44.70;;;;;;6188775;23;20028;-81
2023/08/09 09:40:27;;;;;;;5.47;2.00;;;27.90;44.80;;;;;;6188447;23;20009;-78
2023/08/09 09:42:54;;;;;;;6.30;2.13;;;27.80;45.20;;;;;;6215742;23;20019;-78
2023/08/09 09:45:23;;;;;;;12.75;3.00;;;27.90;45.30;;;;;;6189607;23;20094;-80
2023/08/09 09:47:49;;;;;;;7.03;1.92;;;27.90;45.40;;;;;;6216817;23;20039;-78
2023/08/09 09:50:16;;;;;;;6.43;1.95;;;27.90;44.60;;;;;;6230199;23;20032;-76
2023/08/09 09:52:42;;;;;;;9.75;2.70;;;27.90;44.40;;;;;;6216509;23;19997;-78
2023/08/09 09:55:10;;;;;;;7.95;2.35;;;27.90;44.90;;;;;;6215471;23;20010;-78
2023/08/09 09:57:36;;;;;;;9.20;3.22;;;27.90;45.30;;;;;;6216301;23;20000;-79
2023/08/09 10:00:10;;;;;;;6.80;2.25;;;28.00;45.00;;;;;;6187358;23;20021;-78
2023/08/09 10:02:48;;;;;;;6.63;2.10;;;28.00;45.20;;;;;;6214766;23;20032;-78
2023/08/09 10:05:35;;;;;;;11.23;3.45;;;28.00;45.70;;;;;;6215364;23;20442;-78
2023/08/09 10:08:07;;;;;;;8.80;2.45;;;28.00;45.30;;;;;;6216494;23;20461;-78
2023/08/09 10:10:36;;;;;;;9.80;2.45;;;28.10;44.80;;;;;;6216254;23;20380;-78
2023/08/09 10:13:04;;;;;;;9.93;2.50;;;28.10;46.30;;;;;;6216061;23;19997;-78
2023/08/09 10:15:54;;;;;;;11.02;2.60;;;28.10;46.40;;;;;;6215921;23;20008;-78
2023/08/09 10:18:23;;;;;;;6.60;2.30;;;28.10;45.50;;;;;;6189060;23;20005;-78
2023/08/09 10:20:52;;;;;;;7.80;2.33;;;28.20;45.80;;;;;;6189643;23;20399;-79
2023/08/09 10:23:22;;;;;;;11.13;2.05;;;28.30;46.00;;;;;;6189312;23;20009;-80
2023/08/09 10:25:50;;;;;;;9.02;2.92;;;28.40;45.50;;;;;;6215851;23;20005;-78
2023/08/09 10:28:17;;;;;;;10.90;3.03;;;28.40;45.20;;;;;;6189399;23;20388;-79
2023/08/09 10:30:52;;;;;;;6.63;1.90;;;28.50;45.10;;;;;;6218246;23;20019;-78
2023/08/09 10:33:19;;;;;;;7.15;2.58;;;28.60;44.50;;;;;;6216846;23;20008;-79
2023/08/09 10:35:52;;;;;;;7.45;2.53;;;28.60;44.40;;;;;;6215692;23;20007;-80
2023/08/09 10:38:38;;;;;;;7.60;2.38;;;28.60;44.50;;;;;;6188763;23;20007;-80
2023/08/09 10:41:09;;;;;;;10.75;3.03;;;28.60;44.60;;;;;;6215104;23;19997;-79
2023/08/09 10:43:35;;;;;;;13.95;2.92;;;28.70;44.60;;;;;;6215525;23;20009;-79
2023/08/09 10:46:23;;;;;;;6.00;2.08;;;28.80;44.30;;;;;;6215494;23;20004;-80
2023/08/09 10:48:59;;;;;;;10.70;2.38;;;28.70;43.90;;;;;;6213758;23;20009;-77
2023/08/09 10:51:25;;;;;;;6.13;2.05;;;28.70;43.70;;;;;;6187451;23;20058;-83
2023/08/09 10:54:05;;;;;;;8.32;2.70;;;28.70;45.70;;;;;;6188500;23;20008;-83
2023/08/09 10:56:41;;;;;;;12.52;2.70;;;28.80;46.20;;;;;;6215731;23;20304;-80
2023/08/09 10:59:12;;;;;;;5.43;2.10;;;28.80;45.70;;;;;;6216500;23;20001;-80
2023/08/09 11:01:39;;;;;;;7.95;2.20;;;28.90;46.80;;;;;;6215911;23;20391;-81
2023/08/09 11:04:10;;;;;;;7.22;2.65;;;28.90;46.90;;;;;;6214385;23;20034;-80
2023/08/09 11:06:38;;;;;;;7.38;2.13;;;29.00;46.90;;;;;;6188656;23;20015;-79
2023/08/09 11:09:15;;;;;;;6.00;1.90;;;29.00;46.60;;;;;;6214914;23;19997;-80
2023/08/09 11:11:43;;;;;;;6.30;2.33;;;29.10;45.50;;;;;;6215968;23;20000;-81
2023/08/09 11:14:10;;;;;;;7.55;2.30;;;29.20;46.70;;;;;;6190770;23;20055;-79
2023/08/09 11:16:37;;;;;;;8.70;2.90;;;29.30;46.70;;;;;;6217330;23;20005;-78
2023/08/09 11:19:12;;;;;;;8.73;2.30;;;29.30;46.60;;;;;;6217429;23;20003;-80
2023/08/09 11:21:56;;;;;;;9.07;2.22;;;29.20;45.20;;;;;;6216300;23;20303;-80
2023/08/09 11:24:26;;;;;;;7.43;2.28;;;29.30;46.60;;;;;;6221539;23;20007;-78
2023/08/09 11:26:54;;;;;;;11.38;2.58;;;29.40;46.80;;;;;;6193873;23;20011;-81
2023/08/09 11:29:28;;;;;;;8.45;2.38;;;29.50;46.80;;;;;;6218159;23;20078;-77
2023/08/09 11:31:57;;;;;;;7.03;2.40;;;29.50;46.20;;;;;;6215541;23;20426;-81
2023/08/09 11:34:24;;;;;;;8.30;2.38;;;29.50;44.70;;;;;;6189155;23;20048;-78
2023/08/09 11:36:52;;;;;;;5.85;1.98;;;29.50;45.90;;;;;;6215082;23;20021;-75
2023/08/09 11:39:20;;;;;;;7.32;2.33;;;29.50;46.00;;;;;;6188764;23;20419;-76
2023/08/09 11:41:54;;;;;;;5.45;1.80;;;29.60;46.40;;;;;;6215270;23;20004;-77
2023/08/09 11:44:31;;;;;;;7.88;2.10;;;29.50;46.70;;;;;;6215324;23;20074;-76
2023/08/09 11:47:00;;;;;;;7.57;2.15;;;29.50;45.90;;;;;;6215868;23;20095;-77
2023/08/09 11:49:31;;;;;;;9.23;2.00;;;29.50;47.10;;;;;;6230748;23;20023;-75
2023/08/09 11:51:57;;;;;;;7.10;2.03;;;29.60;45.90;;;;;;6206055;23;20000;-75
2023/08/09 11:54:25;;;;;;;6.45;2.38;;;29.60;46.70;;;;;;6215243;23;20004;-78
2023/08/09 11:56:51;;;;;;;8.18;2.10;;;29.70;46.30;;;;;;6215156;23;20426;-76
2023/08/09 11:59:19;;;;;;;10.90;2.75;;;29.70;45.90;;;;;;6188358;23;20005;-76
2023/08/09 12:01:47;;;;;;;7.05;2.42;;;29.80;46.10;;;;;;6214878;23;20009;-76
2023/08/09 12:04:19;;;;;;;9.00;2.20;;;29.80;46.50;;;;;;6214974;23;20071;-77
2023/08/09 12:06:55;;;;;;;10.50;2.53;;;29.70;46.30;;;;;;6216785;23;20062;-76
2023/08/09 12:09:36;;;;;;;9.55;2.30;;;29.70;46.30;;;;;;6217134;23;20596;-77
2023/08/09 12:12:16;;;;;;;5.68;1.98;;;29.80;44.80;;;;;;6216992;23;20026;-76
2023/08/09 12:14:53;;;;;;;7.85;2.28;;;29.80;45.70;;;;;;6216790;23;20430;-76
2023/08/09 12:17:21;;;;;;;6.68;2.00;;;29.90;45.80;;;;;;6216986;23;20001;-77
2023/08/09 12:19:47;;;;;;;7.05;2.35;;;29.80;45.60;;;;;;6217667;23;20040;-77
2023/08/09 12:22:13;;;;;;;5.47;2.25;;;29.80;45.30;;;;;;6195874;23;20001;-76
2023/08/09 12:24:39;;;;;;;6.75;2.50;;;29.80;45.30;;;;;;6192086;23;20009;-76
2023/08/09 12:27:06;;;;;;;6.22;2.08;;;29.90;44.70;;;;;;6216241;23;20004;-77
2023/08/09 12:29:32;;;;;;;14.60;4.18;;;29.90;44.60;;;;;;6190097;23;20450;-76
2023/08/09 12:31:59;;;;;;;9.05;2.85;;;30.00;44.90;;;;;;6216648;23;20004;-77
2023/08/09 12:34:26;;;;;;;10.05;3.38;;;30.10;44.90;;;;;;6216792;23;20083;-75
2023/08/09 12:36:52;;;;;;;7.47;2.45;;;30.10;45.80;;;;;;6216842;23;20070;-77
2023/08/09 12:39:20;;;;;;;9.90;2.13;;;30.10;45.10;;;;;;6216880;23;20000;-76
2023/08/09 12:41:46;;;;;;;8.02;2.72;;;30.20;44.50;;;;;;6190108;23;20023;-75
2023/08/09 12:44:12;;;;;;;8.00;2.13;;;30.20;44.70;;;;;;6189982;23;20012;-77
2023/08/09 12:46:39;;;;;;;8.77;2.47;;;30.20;44.00;;;;;;6216828;23;20005;-75
2023/08/09 12:49:06;;;;;;;6.18;2.00;;;30.20;45.00;;;;;;6215494;23;20000;-75
2023/08/09 12:51:33;;;;;;;9.35;2.78;;;30.30;44.40;;;;;;6216407;23;20446;-76